Time;durP1;ratioP1;P1;durP2;ratioP2;P2;SDS_P1;SDS_P2;PMS_P1;PMS_P2;Temp;Humidity;BMP_temperature;BMP_pressure;BME280_temperature;BME280_humidity;BME280_pressure;Samples;Min_cycle;Max_cycle;Signal;HPM_P1;HPM_P2
2021/11/28 00:00:45;;;;;;;28.60;18.73;;;;;;;2.06;76.24;98390.59;1748790;80;21138;-53
2021/11/28 00:03:13;;;;;;;26.80;16.83;;;;;;;2.04;76.35;98395.12;1751940;80;21713;-53
2021/11/28 00:05:41;;;;;;;26.93;17.67;;;;;;;2.04;76.42;98389.81;1746941;80;21058;-53
2021/11/28 00:10:59;;;;;;;26.60;17.70;;;;;;;2.05;76.44;98400.80;1749018;80;21390;-54
2021/11/28 00:15:56;;;;;;;25.77;19.37;;;;;;;2.00;76.27;98410.27;1749999;80;21604;-54
2021/11/28 00:18:24;;;;;;;29.27;20.30;;;;;;;1.99;76.36;98405.88;1749333;80;21396;-54
2021/11/28 00:20:51;;;;;;;29.83;18.63;;;;;;;1.94;76.23;98402.53;1752163;80;21157;-54
2021/11/28 00:23:19;;;;;;;29.17;18.90;;;;;;;1.86;76.36;98409.89;1687359;82;21356;-54
2021/11/28 00:25:45;;;;;;;32.30;20.83;;;;;;;1.82;76.39;98413.56;1749068;80;21515;-54
2021/11/28 00:28:13;;;;;;;26.47;18.20;;;;;;;1.79;76.47;98425.59;1752862;79;21113;-55
2021/11/28 00:30:40;;;;;;;26.83;18.20;;;;;;;1.77;76.59;98436.28;1747554;80;21272;-55
2021/11/28 00:33:07;;;;;;;25.27;16.93;;;;;;;1.78;76.64;98438.02;1749824;80;20955;-55
2021/11/28 00:35:33;;;;;;;24.87;15.67;;;;;;;1.79;76.61;98437.07;1753685;80;21520;-55
2021/11/28 00:38:01;;;;;;;24.73;16.37;;;;;;;1.80;76.62;98431.31;1748130;80;21678;-55
2021/11/28 00:40:27;;;;;;;22.87;16.70;;;;;;;1.81;76.65;98429.94;1746742;80;21471;-55
2021/11/28 00:42:56;;;;;;;19.90;14.53;;;;;;;1.85;76.69;98430.71;1752430;80;21522;-56
2021/11/28 00:45:23;;;;;;;22.27;16.00;;;;;;;1.86;76.64;98431.13;1748627;80;20987;-56
2021/11/28 00:47:49;;;;;;;29.67;17.60;;;;;;;1.85;76.57;98423.63;1752481;80;21504;-56
2021/11/28 00:52:43;;;;;;;28.50;17.83;;;;;;;1.83;76.58;98416.63;1748425;80;21061;-56
2021/11/28 00:55:10;;;;;;;27.23;17.93;;;;;;;1.81;76.62;98430.39;1749048;80;21416;-56
2021/11/28 00:57:37;;;;;;;24.97;17.23;;;;;;;1.79;76.48;98425.59;1740880;80;21742;-57
2021/11/28 01:00:58;;;;;;;26.67;17.67;;;;;;;1.77;76.49;98407.56;1861045;75;26430;-56
2021/11/28 01:03:25;;;;;;;24.17;17.93;;;;;;;1.72;76.57;98410.81;1834017;77;20965;-57
2021/11/28 01:05:54;;;;;;;23.93;17.70;;;;;;;1.68;76.61;98407.87;1843482;77;22377;-56
2021/11/28 01:08:22;;;;;;;23.60;16.60;;;;;;;1.67;76.77;98411.44;1799328;78;21562;-56
2021/11/28 01:10:49;;;;;;;27.23;16.97;;;;;;;1.68;76.90;98423.78;1803481;78;21407;-56
2021/11/28 01:13:17;;;;;;;21.53;14.93;;;;;;;1.69;76.97;98422.87;1772145;79;21485;-56
2021/11/28 01:15:43;;;;;;;20.80;15.53;;;;;;;1.70;77.00;98433.41;1779579;78;21468;-57
2021/11/28 01:18:11;;;;;;;20.60;15.70;;;;;;;1.72;76.96;98438.20;1785535;79;21637;-57
2021/11/28 01:20:37;;;;;;;20.33;16.27;;;;;;;1.73;76.82;98429.33;1779066;79;20964;-57
2021/11/28 01:23:04;;;;;;;26.43;18.43;;;;;;;1.71;76.77;98424.98;1799348;78;20883;-57
2021/11/28 01:25:30;;;;;;;22.27;16.90;;;;;;;1.69;76.83;98425.52;1792792;78;21056;-57
2021/11/28 01:27:58;;;;;;;23.17;16.63;;;;;;;1.64;76.70;98427.44;1801648;78;21051;-57
2021/11/28 01:30:25;;;;;;;25.57;17.03;;;;;;;1.57;76.69;98429.89;1769456;78;22961;-57
2021/11/28 01:32:52;;;;;;;21.30;15.80;;;;;;;1.53;76.82;98426.50;1804420;78;21502;-56
2021/11/28 01:35:19;;;;;;;23.13;16.43;;;;;;;1.50;76.96;98423.94;1775208;79;21661;-55
2021/11/28 01:37:45;;;;;;;23.03;15.57;;;;;;;1.49;77.03;98421.73;1781058;78;21708;-56
2021/11/28 01:40:16;;;;;;;21.67;15.17;;;;;;;1.49;77.01;98415.56;1777745;79;21073;-56
2021/11/28 01:42:46;;;;;;;19.30;14.87;;;;;;;1.50;77.05;98422.61;1800450;78;21096;-56
2021/11/28 01:45:20;;;;;;;20.40;14.20;;;;;;;1.49;77.03;98422.20;1806029;77;20976;-57
2021/11/28 01:47:47;;;;;;;20.55;14.98;;;;;;;1.49;76.98;98419.55;1805286;78;20870;-55
2021/11/28 01:50:13;;;;;;;20.37;14.83;;;;;;;1.49;76.95;98422.20;1804183;78;20937;-57
2021/11/28 01:52:41;;;;;;;26.27;15.10;;;;;;;1.48;76.87;98423.98;1809235;77;20970;-55
2021/11/28 01:55:12;;;;;;;18.03;13.07;;;;;;;1.45;76.96;98420.55;1779031;79;22185;-57
2021/11/28 01:57:40;;;;;;;19.07;12.53;;;;;;;1.46;76.99;98426.27;1777314;79;20922;-57
2021/11/28 02:00:11;;;;;;;21.83;14.53;;;;;;;1.46;77.07;98427.59;1769808;79;20956;-54
2021/11/28 02:02:43;;;;;;;22.13;14.30;;;;;;;1.47;77.08;98434.17;1754806;79;20961;-57
2021/11/28 02:05:10;;;;;;;22.43;14.33;;;;;;;1.48;77.09;98421.33;1755288;79;20923;-56
2021/11/28 02:07:36;;;;;;;22.17;16.83;;;;;;;1.48;77.03;98418.67;1756799;79;21105;-57
2021/11/28 02:10:04;;;;;;;24.77;16.53;;;;;;;1.48;77.06;98413.38;1756726;79;20903;-57
2021/11/28 02:12:32;;;;;;;20.60;15.53;;;;;;;1.47;77.14;98411.63;1753235;79;20941;-57
2021/11/28 02:15:00;;;;;;;21.07;15.57;;;;;;;1.47;77.23;98402.35;1754394;79;20931;-57
2021/11/28 02:17:27;;;;;;;22.53;15.17;;;;;;;1.46;77.20;98395.31;1753036;79;21341;-57
2021/11/28 02:19:53;;;;;;;20.77;12.93;;;;;;;1.46;77.22;98397.09;1757507;79;21424;-57
2021/11/28 02:22:20;;;;;;;16.80;12.93;;;;;;;1.44;77.15;98410.43;1752896;79;21685;-57
2021/11/28 02:24:47;;;;;;;19.80;14.53;;;;;;;1.43;77.11;98401.20;1754404;79;21516;-57
2021/11/28 02:27:14;;;;;;;17.57;12.73;;;;;;;1.39;77.13;98400.41;1757115;79;21449;-57
2021/11/28 02:29:43;;;;;;;21.87;11.97;;;;;;;1.37;76.98;98397.39;1754293;79;21020;-57
2021/11/28 02:32:11;;;;;;;17.97;12.47;;;;;;;1.33;76.87;98386.50;1753126;79;22083;-56
2021/11/28 02:34:39;;;;;;;18.33;12.63;;;;;;;1.30;76.85;98379.96;1750137;79;21049;-57
2021/11/28 02:37:06;;;;;;;20.13;13.23;;;;;;;1.28;76.99;98386.63;1748283;79;21077;-56
2021/11/28 02:39:35;;;;;;;18.13;12.60;;;;;;;1.29;77.08;98388.38;1749864;79;21093;-56
2021/11/28 02:42:03;;;;;;;16.07;12.33;;;;;;;1.29;77.10;98393.67;1753368;79;21463;-57
2021/11/28 02:44:33;;;;;;;21.03;14.83;;;;;;;1.28;77.08;98379.14;1752406;79;22441;-58
2021/11/28 02:47:01;;;;;;;23.63;14.13;;;;;;;1.27;77.28;98384.93;1750105;79;21685;-57
2021/11/28 02:49:29;;;;;;;14.43;11.00;;;;;;;1.27;77.32;98380.08;1779372;78;21123;-57
2021/11/28 02:51:57;;;;;;;18.87;13.10;;;;;;;1.26;77.28;98389.82;1767273;79;21077;-57
2021/11/28 02:54:23;;;;;;;16.70;11.93;;;;;;;1.25;77.32;98394.70;1759499;79;21087;-57
2021/11/28 02:56:51;;;;;;;19.83;12.97;;;;;;;1.26;77.40;98392.92;1733576;79;22544;-58
2021/11/28 02:59:18;;;;;;;20.30;14.03;;;;;;;1.26;77.50;98390.27;1763824;79;20976;-57
2021/11/28 03:01:45;;;;;;;20.13;12.23;;;;;;;1.26;77.45;98387.17;1762083;79;21605;-57
2021/11/28 03:04:17;;;;;;;18.53;11.37;;;;;;;1.27;77.54;98386.25;1762083;79;21024;-57
2021/11/28 03:06:44;;;;;;;19.10;12.13;;;;;;;1.28;77.53;98389.28;1761770;79;21473;-58
2021/11/28 03:09:10;;;;;;;23.07;13.57;;;;;;;1.29;77.56;98400.30;1777034;78;21095;-57
2021/11/28 03:11:37;;;;;;;27.10;13.90;;;;;;;1.29;77.35;98398.98;1777979;78;21059;-57
2021/11/28 03:14:04;;;;;;;27.77;15.80;;;;;;;1.27;77.45;98399.97;1753435;80;21112;-57
2021/11/28 03:16:31;;;;;;;26.53;15.13;;;;;;;1.25;77.63;98400.01;1759640;80;21115;-57
2021/11/28 03:18:58;;;;;;;26.07;15.87;;;;;;;1.24;77.73;98409.33;1759004;79;21088;-57
2021/11/28 03:21:29;;;;;;;18.63;13.87;;;;;;;1.24;77.57;98422.13;1762139;79;21152;-57
2021/11/28 03:23:59;;;;;;;21.27;13.03;;;;;;;1.22;77.43;98423.95;1761160;79;21076;-58
2021/11/28 03:26:38;;;;;;;22.53;12.90;;;;;;;1.19;77.38;98429.38;1765464;79;20983;-57
2021/11/28 03:29:12;;;;;;;23.33;14.63;;;;;;;1.17;77.38;98425.02;1764736;79;21495;-57
2021/11/28 03:31:57;;;;;;;17.63;11.97;;;;;;;1.13;77.46;98413.19;1766062;79;21082;-57
2021/11/28 03:34:25;;;;;;;17.00;11.40;;;;;;;1.10;77.48;98400.05;1764977;79;22273;-57
2021/11/28 03:36:55;;;;;;;13.40;10.10;;;;;;;1.07;77.40;98404.11;1762592;79;21063;-57
2021/11/28 03:39:26;;;;;;;17.00;10.17;;;;;;;1.08;77.47;98404.98;1766661;80;21070;-57
2021/11/28 03:42:00;;;;;;;14.90;9.73;;;;;;;1.07;77.52;98405.89;1765448;79;20915;-57
2021/11/28 03:44:29;;;;;;;;;;;;;;;1.10;77.57;98401.83;1738742;80;21092;-57
2021/11/28 03:47:01;;;;;;;17.67;10.67;;;;;;;1.11;77.52;98398.23;1759135;79;21177;-57
2021/11/28 03:49:27;;;;;;;20.53;12.20;;;;;;;1.11;77.67;98407.52;1761293;79;21105;-57
2021/11/28 03:51:54;;;;;;;22.43;12.43;;;;;;;1.11;77.68;98410.16;1782671;78;21123;-57
2021/11/28 03:54:21;;;;;;;32.23;19.07;;;;;;;1.12;77.74;98410.58;1779672;78;21087;-57
2021/11/28 03:56:49;;;;;;;29.20;17.37;;;;;;;1.12;77.78;98405.28;1754684;80;21048;-57
2021/11/28 03:59:17;;;;;;;31.60;18.83;;;;;;;1.12;77.99;98405.28;1753765;79;22658;-57
2021/11/28 04:01:45;;;;;;;33.50;20.37;;;;;;;1.07;78.03;98404.11;1786724;78;23049;-57
2021/11/28 04:04:11;;;;;;;33.37;19.63;;;;;;;1.05;78.23;98414.34;1765930;80;21429;-57
2021/11/28 04:06:48;;;;;;;30.90;17.93;;;;;;;1.07;78.52;98420.02;1769842;80;21092;-57
2021/11/28 04:09:15;;;;;;;28.20;17.27;;;;;;;1.08;78.53;98407.63;1775370;78;21072;-57
2021/11/28 04:11:44;;;;;;;30.67;18.60;;;;;;;1.10;78.62;98415.08;1776979;78;20974;-57
2021/11/28 04:14:11;;;;;;;24.23;14.83;;;;;;;1.13;78.72;98409.66;1770738;78;21100;-57
2021/11/28 04:16:38;;;;;;;24.00;15.37;;;;;;;1.15;78.88;98401.22;1800192;77;21066;-57
2021/11/28 04:19:04;;;;;;;20.97;12.87;;;;;;;1.15;78.97;98402.54;1765322;79;21042;-57
2021/11/28 04:21:31;;;;;;;20.27;12.90;;;;;;;1.17;79.14;98398.52;1778706;79;21036;-57
2021/11/28 04:23:58;;;;;;;17.87;12.80;;;;;;;1.19;79.29;98394.05;1764452;79;21076;-57
2021/11/28 04:26:25;;;;;;;16.93;12.23;;;;;;;1.21;79.44;98396.16;1797616;77;21171;-57
2021/11/28 04:28:51;;;;;;;18.83;12.17;;;;;;;1.23;79.49;98397.86;1775290;79;20966;-57
2021/11/28 04:31:19;;;;;;;14.17;10.53;;;;;;;1.25;79.46;98409.29;1772150;80;21050;-57
2021/11/28 04:33:45;;;;;;;12.50;10.03;;;;;;;1.26;79.53;98411.48;1755571;80;21642;-57
2021/11/28 04:36:13;;;;;;;18.97;11.37;;;;;;;1.29;79.67;98412.69;1785465;78;21256;-57
2021/11/28 04:38:40;;;;;;;15.37;11.27;;;;;;;1.31;79.79;98410.41;1780121;78;21005;-57
2021/11/28 04:41:08;;;;;;;14.57;11.80;;;;;;;1.35;79.86;98410.73;1785123;79;20893;-57
2021/11/28 04:43:36;;;;;;;16.47;11.33;;;;;;;1.36;79.90;98408.95;1784636;79;20926;-57
2021/11/28 04:46:03;;;;;;;18.60;12.83;;;;;;;1.36;79.95;98412.44;1785242;79;21428;-57
2021/11/28 04:48:30;;;;;;;14.30;10.90;;;;;;;1.36;80.01;98413.76;1776752;79;21794;-57
2021/11/28 04:50:58;;;;;;;24.80;12.43;;;;;;;1.37;80.08;98410.65;1767245;79;20970;-57
2021/11/28 04:53:25;;;;;;;18.97;11.90;;;;;;;1.40;80.12;98410.11;1775101;80;20937;-57
2021/11/28 04:55:51;;;;;;;17.57;11.00;;;;;;;1.43;80.21;98405.17;1775046;78;21426;-57
2021/11/28 04:58:18;;;;;;;14.13;11.47;;;;;;;1.44;80.35;98410.43;1772561;80;20934;-57
2021/11/28 05:00:45;;;;;;;13.43;9.77;;;;;;;1.48;80.50;98414.70;1773139;78;21709;-57
2021/11/28 05:03:12;;;;;;;23.80;10.80;;;;;;;1.52;80.67;98418.13;1778290;78;20874;-57
2021/11/28 05:05:40;;;;;;;11.87;8.87;;;;;;;1.57;80.76;98424.59;1801725;78;20894;-57
2021/11/28 05:08:26;;;;;;;15.50;8.63;;;;;;;1.59;80.95;98421.44;1805126;78;20910;-57
2021/11/28 05:10:53;;;;;;;14.10;9.30;;;;;;;1.61;81.13;98431.55;1775197;78;21045;-57
2021/11/28 05:13:20;;;;;;;16.67;9.30;;;;;;;1.63;81.31;98424.38;1801470;77;21359;-57
2021/11/28 05:15:47;;;;;;;11.33;8.27;;;;;;;1.63;81.56;98429.68;1801125;78;20946;-57
2021/11/28 05:18:31;;;;;;;29.83;9.30;;;;;;;1.65;81.80;98428.72;1803875;78;21177;-57
2021/11/28 05:20:59;;;;;;;14.10;8.97;;;;;;;1.67;81.96;98430.00;1797351;78;20961;-57
2021/11/28 05:23:25;;;;;;;14.97;9.23;;;;;;;1.70;82.04;98427.27;1777669;78;21017;-57
2021/11/28 05:25:52;;;;;;;11.90;7.60;;;;;;;1.72;82.13;98424.07;1775600;78;21551;-57
2021/11/28 05:28:19;;;;;;;10.90;8.83;;;;;;;1.73;82.22;98425.34;1796587;78;21843;-57
2021/11/28 05:30:47;;;;;;;11.73;8.67;;;;;;;1.75;82.36;98425.30;1799039;77;21035;-57
2021/11/28 05:33:21;;;;;;;12.88;9.20;;;;;;;1.78;82.51;98420.77;1796435;78;21391;-57
2021/11/28 05:36:06;;;;;;;9.20;6.78;;;;;;;1.81;82.66;98417.13;1799854;77;21478;-57
2021/11/28 05:38:37;;;;;;;18.10;9.80;;;;;;;1.82;82.75;98413.56;1774778;78;21103;-57
2021/11/28 05:41:04;;;;;;;13.07;8.67;;;;;;;1.84;82.79;98411.73;1771620;78;21116;-58
2021/11/28 05:43:31;;;;;;;18.07;7.63;;;;;;;1.84;82.88;98411.27;1795924;78;21056;-57
2021/11/28 05:45:57;;;;;;;14.97;8.37;;;;;;;1.85;82.93;98416.12;1803080;78;21352;-57
2021/11/28 05:48:40;;;;;;;12.93;9.23;;;;;;;1.84;82.97;98426.32;1672353;83;22633;-58
2021/11/28 05:51:26;;;;;;;10.47;7.50;;;;;;;1.82;82.99;98425.04;1815164;77;22439;-58
2021/11/28 05:53:53;;;;;;;10.13;7.33;;;;;;;1.82;82.99;98428.16;1834685;75;21610;-58
2021/11/28 05:56:19;;;;;;;17.03;7.03;;;;;;;1.82;83.00;98424.17;1839037;77;21057;-58
2021/11/28 05:58:48;;;;;;;8.77;6.53;;;;;;;1.80;83.04;98428.20;1836767;77;21088;-57
2021/11/28 06:01:14;;;;;;;7.07;5.27;;;;;;;1.83;83.11;98432.09;1840349;77;21041;-58
2021/11/28 06:03:41;;;;;;;10.63;4.70;;;;;;;1.86;83.21;98443.06;1819715;76;21145;-57
2021/11/28 06:06:08;;;;;;;5.13;3.43;;;;;;;1.88;83.25;98443.39;1819367;77;21045;-57
2021/11/28 06:08:37;;;;;;;4.57;3.50;;;;;;;1.91;83.29;98441.11;1823969;77;21005;-57
2021/11/28 06:11:05;;;;;;;14.83;4.23;;;;;;;1.93;83.28;98445.04;1784695;78;21451;-57
2021/11/28 06:13:32;;;;;;;8.50;3.87;;;;;;;1.94;83.34;98444.99;1752278;80;21080;-56
2021/11/28 06:16:12;;;;;;;6.07;3.87;;;;;;;1.95;83.25;98436.11;1659657;80;21229;-56
2021/11/28 06:18:55;;;;;;;3.17;2.87;;;;;;;1.95;83.29;98434.79;1640014;85;21123;-56
2021/11/28 06:21:40;;;;;;;3.60;2.80;;;;;;;1.95;83.31;98436.58;1722432;80;21093;-56
2021/11/28 06:24:15;;;;;;;3.72;3.20;;;;;;;1.96;83.38;98438.31;1778766;78;21136;-56
2021/11/28 06:26:43;;;;;;;2.50;2.30;;;;;;;1.96;83.48;98435.17;1787215;78;21057;-55
2021/11/28 06:29:11;;;;;;;6.33;2.10;;;;;;;1.98;83.59;98436.45;1779304;79;22556;-55
2021/11/28 06:31:39;;;;;;;5.07;2.13;;;;;;;2.01;83.72;98437.22;1731264;81;21038;-56
2021/11/28 06:34:14;;;;;;;4.23;2.90;;;;;;;2.03;83.80;98442.02;1714744;79;21056;-55
2021/11/28 06:36:59;;;;;;;6.43;3.57;;;;;;;2.03;83.84;98436.72;1758971;79;21052;-55
2021/11/28 06:39:44;;;;;;;;;;;;;;;2.04;83.87;98438.91;1759376;79;21487;-55
2021/11/28 06:42:12;;;;;;;5.33;4.33;;;;;;;2.03;83.96;98439.83;1749381;79;23128;-55
2021/11/28 06:44:39;;;;;;;3.57;3.17;;;;;;;2.01;83.95;98442.98;1759494;79;21130;-54
2021/11/28 06:47:06;;;;;;;3.53;3.20;;;;;;;2.01;83.99;98435.89;1762813;79;20971;-54
2021/11/28 06:49:33;;;;;;;4.10;3.77;;;;;;;2.02;84.06;98436.77;1747625;79;21073;-54
2021/11/28 06:52:10;;;;;;;3.80;3.40;;;;;;;2.04;84.15;98437.59;1760430;79;21580;-54
2021/11/28 06:54:41;;;;;;;4.43;4.03;;;;;;;2.06;84.26;98430.41;1706728;79;21957;-54
2021/11/28 06:57:07;;;;;;;5.47;4.87;;;;;;;2.08;84.26;98426.79;1759905;79;21507;-54
2021/11/28 06:59:36;;;;;;;4.90;4.40;;;;;;;2.11;84.31;98432.00;1761624;79;22285;-54
2021/11/28 07:02:03;;;;;;;6.17;5.57;;;;;;;2.16;84.39;98427.39;1767158;79;20917;-54
2021/11/28 07:04:30;;;;;;;10.10;5.83;;;;;;;2.19;84.37;98425.09;1758612;79;21411;-54
2021/11/28 07:07:16;;;;;;;8.67;4.77;;;;;;;2.20;84.36;98429.03;1759129;79;21495;-52
2021/11/28 07:09:45;;;;;;;9.30;4.63;;;;;;;2.22;84.33;98437.78;1758567;79;21045;-52
2021/11/28 07:12:13;;;;;;;20.50;4.93;;;;;;;2.22;84.29;98428.94;1758847;79;21024;-52
2021/11/28 07:14:40;;;;;;;4.37;3.97;;;;;;;2.22;84.23;98427.16;1759624;79;21076;-53
2021/11/28 07:17:07;;;;;;;4.67;4.20;;;;;;;2.23;84.17;98430.68;1759714;79;21053;-53
2021/11/28 07:19:35;;;;;;;5.60;3.57;;;;;;;2.23;84.14;98430.22;1756681;79;21511;-55
2021/11/28 07:22:20;;;;;;;4.23;3.83;;;;;;;2.24;84.18;98425.78;1758505;79;21294;-53
2021/11/28 07:24:48;;;;;;;3.60;2.53;;;;;;;2.27;84.32;98429.20;1755668;79;21103;-53
2021/11/28 07:27:15;;;;;;;4.40;3.33;;;;;;;2.33;84.39;98432.55;1759524;79;21105;-53
2021/11/28 07:29:41;;;;;;;4.43;3.53;;;;;;;2.35;84.35;98428.92;1762077;79;21335;-56
2021/11/28 07:32:09;;;;;;;4.57;2.77;;;;;;;2.39;84.42;98423.02;1763593;79;21144;-54
2021/11/28 07:34:54;;;;;;;3.77;3.15;;;;;;;2.42;84.38;98434.88;1761746;79;20902;-54
2021/11/28 07:37:32;;;;;;;5.47;4.33;;;;;;;2.44;84.34;98433.04;1756168;79;20925;-54
2021/11/28 07:39:58;;;;;;;3.90;3.33;;;;;;;2.47;84.39;98439.09;1760766;79;20953;-53
2021/11/28 07:42:25;;;;;;;9.33;3.83;;;;;;;2.50;84.42;98439.45;1760239;79;20935;-53
2021/11/28 07:45:00;;;;;;;;;;;;;;;2.55;84.47;98437.50;1762020;79;21415;-53
2021/11/28 07:47:46;;;;;;;4.57;3.43;;;;;;;2.60;84.61;98436.40;1722968;81;20171;-53
2021/11/28 07:50:23;;;;;;;3.27;3.00;;;;;;;2.64;84.59;98440.66;1717621;81;21385;-53
2021/11/28 07:52:50;;;;;;;3.33;3.03;;;;;;;2.69;84.61;98439.17;1739071;78;21305;-53
2021/11/28 07:55:22;;;;;;;3.87;2.87;;;;;;;2.74;84.55;98441.64;1756770;80;20915;-53
2021/11/28 07:58:01;;;;;;;4.13;3.70;;;;;;;2.78;84.52;98434.84;1757420;79;21475;-53
2021/11/28 08:00:44;;;;;;;5.13;4.67;;;;;;;2.82;84.53;98423.16;1775061;78;20901;-53
2021/11/28 08:03:22;;;;;;;11.87;4.67;;;;;;;2.85;84.44;98427.04;1769504;78;21459;-53
2021/11/28 08:06:07;;;;;;;4.70;4.12;;;;;;;2.88;84.43;98422.08;1754857;80;20908;-53
2021/11/28 08:08:41;;;;;;;10.33;4.30;;;;;;;2.90;84.46;98422.41;1755158;80;20920;-53
2021/11/28 08:11:13;;;;;;;9.63;4.67;;;;;;;2.95;84.44;98427.09;1779361;78;21122;-53
2021/11/28 08:13:41;;;;;;;4.93;3.97;;;;;;;2.99;84.43;98426.50;1778401;78;20930;-53
2021/11/28 08:16:08;;;;;;;4.07;3.77;;;;;;;3.01;84.46;98422.86;1770750;80;21344;-53
2021/11/28 08:18:34;;;;;;;5.70;5.20;;;;;;;3.07;84.54;98419.55;1765288;80;21025;-54
2021/11/28 08:21:01;;;;;;;5.23;4.80;;;;;;;3.14;84.60;98427.71;1766130;79;21053;-54
2021/11/28 08:23:28;;;;;;;5.57;5.07;;;;;;;3.19;84.52;98424.39;1765071;80;22989;-54
2021/11/28 08:25:55;;;;;;;5.80;5.30;;;;;;;3.23;84.60;98432.17;1763100;80;21022;-54
2021/11/28 08:28:21;;;;;;;7.73;6.30;;;;;;;3.27;84.55;98431.61;1765442;80;21108;-54
2021/11/28 08:30:48;;;;;;;10.63;6.73;;;;;;;3.32;84.45;98433.60;1769128;80;21026;-53
2021/11/28 08:33:33;;;;;;;10.15;6.47;;;;;;;3.33;84.34;98432.68;1766904;80;21554;-53
2021/11/28 08:36:21;;;;;;;6.20;5.60;;;;;;;3.35;84.31;98434.36;1768262;79;21136;-54
2021/11/28 08:38:48;;;;;;;8.50;6.30;;;;;;;3.39;84.39;98436.45;1758018;79;21415;-53
2021/11/28 08:41:15;;;;;;;6.00;5.27;;;;;;;3.44;84.42;98423.81;1771177;80;21436;-53
2021/11/28 08:43:42;;;;;;;7.37;6.67;;;;;;;3.51;84.40;98418.64;1765256;80;21884;-54
2021/11/28 08:46:08;;;;;;;8.13;6.10;;;;;;;3.55;84.37;98420.27;1779841;78;21022;-53
2021/11/28 08:48:35;;;;;;;9.27;5.77;;;;;;;3.59;84.38;98416.99;1762516;80;21119;-54
2021/11/28 08:51:02;;;;;;;12.17;7.20;;;;;;;3.62;84.29;98418.20;1762295;80;21042;-53
2021/11/28 08:53:29;;;;;;;10.63;8.03;;;;;;;3.62;84.27;98412.42;1767466;80;21737;-53
2021/11/28 08:55:55;;;;;;;11.53;7.13;;;;;;;3.62;84.23;98408.89;1763050;80;21663;-53
2021/11/28 08:58:22;;;;;;;9.60;7.97;;;;;;;3.63;84.25;98411.50;1761887;80;21044;-53
2021/11/28 09:00:48;;;;;;;9.50;8.10;;;;;;;3.69;84.37;98419.22;1764747;80;21109;-54
2021/11/28 09:03:15;;;;;;;6.90;6.17;;;;;;;3.74;84.48;98414.55;1766719;79;22555;-53
2021/11/28 09:05:42;;;;;;;9.53;7.70;;;;;;;3.81;84.60;98419.17;1766431;80;21522;-53
2021/11/28 09:08:08;;;;;;;7.70;6.70;;;;;;;3.87;84.60;98412.72;1775305;78;21498;-53
2021/11/28 09:10:38;;;;;;;10.13;7.43;;;;;;;3.94;84.65;98415.52;1769032;79;21029;-53
2021/11/28 09:13:05;;;;;;;9.10;7.67;;;;;;;4.00;84.65;98401.93;1767733;79;22062;-54
2021/11/28 09:15:32;;;;;;;10.13;7.40;;;;;;;4.05;84.71;98403.95;1763505;79;21114;-53
2021/11/28 09:18:14;;;;;;;12.23;8.53;;;;;;;4.11;84.75;98406.33;1767457;79;21084;-53
2021/11/28 09:20:37;;;;;;;11.10;8.95;;;;;;;4.15;84.69;98405.28;1761610;79;21459;-53
2021/11/28 09:25:30;;;;;;;9.13;8.03;;;;;;;4.20;84.65;98397.94;1768222;79;21111;-53
2021/11/28 09:28:00;;;;;;;12.60;9.90;;;;;;;4.24;84.59;98392.03;1771689;79;21042;-53
2021/11/28 09:30:28;;;;;;;10.50;8.93;;;;;;;4.28;84.59;98389.61;1766817;78;21135;-53
2021/11/28 09:32:56;;;;;;;12.27;8.23;;;;;;;4.33;84.66;98380.97;1769702;79;21100;-54
2021/11/28 09:35:25;;;;;;;10.13;8.10;;;;;;;4.40;84.80;98381.95;1772063;79;21105;-53
2021/11/28 09:37:52;;;;;;;8.40;7.60;;;;;;;4.49;84.92;98378.88;1770875;79;21143;-53
2021/11/28 09:40:21;;;;;;;8.70;7.80;;;;;;;4.61;84.99;98372.56;1768042;79;21039;-53
2021/11/28 09:42:56;;;;;;;10.03;8.70;;;;;;;4.75;85.01;98367.48;1766019;79;21055;-53
2021/11/28 09:45:24;;;;;;;9.27;8.30;;;;;;;4.84;84.83;98369.72;1780716;78;20977;-53
2021/11/28 09:47:50;;;;;;;12.47;9.77;;;;;;;4.92;84.72;98370.22;1765559;80;20882;-54
2021/11/28 09:50:18;;;;;;;13.57;9.77;;;;;;;4.98;84.55;98360.58;1767318;80;21365;-54
2021/11/28 09:52:46;;;;;;;16.27;9.60;;;;;;;5.03;84.39;98365.68;1770609;80;21439;-53
2021/11/28 09:55:13;;;;;;;12.93;9.93;;;;;;;5.07;84.29;98354.81;1768662;80;21359;-53
2021/11/28 09:57:41;;;;;;;10.93;9.10;;;;;;;5.09;84.22;98354.28;1762085;80;21057;-54
2021/11/28 10:00:10;;;;;;;10.13;8.73;;;;;;;5.12;84.20;98357.23;1764305;80;21037;-53
2021/11/28 10:02:39;;;;;;;9.93;8.37;;;;;;;5.14;84.13;98358.91;1768580;80;21093;-53
2021/11/28 10:05:10;;;;;;;11.70;10.47;;;;;;;5.18;84.05;98351.16;1765634;79;21012;-53
2021/11/28 10:07:43;;;;;;;9.90;8.83;;;;;;;5.20;83.90;98351.93;1764279;79;20885;-53
2021/11/28 10:10:12;;;;;;;10.47;9.43;;;;;;;5.23;83.82;98346.45;1764218;79;20973;-53
2021/11/28 10:12:44;;;;;;;14.73;11.03;;;;;;;5.27;83.76;98343.18;1786640;78;21030;-54
2021/11/28 10:15:14;;;;;;;15.37;11.13;;;;;;;5.27;83.70;98341.34;1779872;78;22247;-55
2021/11/28 10:17:42;;;;;;;13.30;10.43;;;;;;;5.30;83.66;98352.34;1750391;79;21435;-55
2021/11/28 10:20:14;;;;;;;13.50;10.83;;;;;;;5.32;83.62;98349.14;1752398;79;21384;-55
2021/11/28 10:22:40;;;;;;;11.00;9.83;;;;;;;5.33;83.61;98343.73;1792607;78;21328;-55
2021/11/28 10:25:26;;;;;;;11.63;9.23;;;;;;;5.37;83.66;98338.23;1790011;78;20925;-55
2021/11/28 10:28:00;;;;;;;14.10;11.17;;;;;;;5.40;83.66;98338.09;1765084;79;21801;-55
2021/11/28 10:30:40;;;;;;;;;;;;;;;5.44;83.71;98339.68;1762453;80;20902;-54
2021/11/28 10:33:20;;;;;;;15.57;11.27;;;;;;;5.50;83.79;98344.23;1754021;80;20110;-55
2021/11/28 10:36:02;;;;;;;13.20;10.47;;;;;;;5.56;83.76;98343.91;1765694;79;20854;-54
2021/11/28 10:38:44;;;;;;;13.53;11.53;;;;;;;5.62;83.72;98351.60;1769215;79;20911;-56
2021/11/28 10:41:28;;;;;;;19.07;14.77;;;;;;;5.67;83.71;98350.05;1762241;79;21086;-55
2021/11/28 10:43:58;;;;;;;12.83;11.33;;;;;;;5.69;83.82;98339.70;1762314;79;21462;-55
2021/11/28 10:46:32;;;;;;;19.17;14.47;;;;;;;5.75;83.86;98334.51;1761819;79;20908;-53
2021/11/28 10:49:05;;;;;;;16.87;12.90;;;;;;;5.80;83.89;98327.11;1763550;79;21007;-52
2021/11/28 10:51:32;;;;;;;13.37;11.13;;;;;;;5.84;83.81;98323.83;1762677;79;20945;-52
2021/11/28 10:53:59;;;;;;;13.07;11.70;;;;;;;5.86;83.76;98321.95;1770477;79;21051;-52
2021/11/28 10:56:25;;;;;;;11.57;10.37;;;;;;;5.86;83.75;98316.14;1734905;79;20945;-52
2021/11/28 10:58:54;;;;;;;14.63;12.70;;;;;;;5.89;83.80;98311.12;1769288;79;20895;-53
2021/11/28 11:01:21;;;;;;;16.20;13.10;;;;;;;5.92;83.87;98303.83;1716079;79;21316;-54
2021/11/28 11:03:48;;;;;;;18.07;15.93;;;;;;;5.94;83.80;98304.61;1715144;79;21601;-53
2021/11/28 11:06:25;;;;;;;19.03;16.07;;;;;;;5.96;83.76;98302.70;1783538;79;21217;-52
2021/11/28 11:09:14;;;;;;;19.90;16.73;;;;;;;5.95;83.70;98302.34;1785188;79;20913;-52
2021/11/28 11:11:43;;;;;;;17.53;12.87;;;;;;;5.94;83.64;98302.41;1762465;79;21483;-52
2021/11/28 11:14:11;;;;;;;15.53;12.27;;;;;;;5.93;83.64;98306.03;1788772;79;20898;-53
2021/11/28 11:16:41;;;;;;;15.63;11.87;;;;;;;5.92;83.62;98307.83;1776409;79;21113;-52
2021/11/28 11:19:36;;;;;;;12.93;11.17;;;;;;;5.91;83.63;98306.09;1773930;79;21149;-52
2021/11/28 11:22:26;;;;;;;14.00;11.30;;;;;;;5.90;83.60;98304.37;1777648;79;21274;-54
2021/11/28 11:24:59;;;;;;;15.43;12.10;;;;;;;5.90;83.63;98312.38;1773547;79;22212;-52
2021/11/28 11:27:36;;;;;;;15.43;12.93;;;;;;;5.90;83.69;98307.04;1781727;79;21465;-52
2021/11/28 11:30:13;;;;;;;16.63;14.03;;;;;;;5.90;83.83;98305.70;1778163;78;22371;-54
2021/11/28 11:32:57;;;;;;;17.13;13.13;;;;;;;5.89;83.75;98313.79;1792585;78;21098;-54
2021/11/28 11:35:28;;;;;;;20.30;14.10;;;;;;;5.86;83.80;98316.14;1768077;79;20976;-54
2021/11/28 11:38:04;;;;;;;17.67;13.30;;;;;;;5.86;83.85;98309.94;1767325;79;21616;-54
2021/11/28 11:40:33;;;;;;;20.60;12.97;;;;;;;5.86;83.91;98308.59;1772939;80;21300;-53
2021/11/28 11:43:00;;;;;;;18.23;13.50;;;;;;;5.86;83.98;98314.80;1798097;78;22442;-54
2021/11/28 11:45:29;;;;;;;19.77;15.10;;;;;;;5.89;84.09;98309.31;1766080;79;22194;-53
2021/11/28 11:47:56;;;;;;;19.50;15.37;;;;;;;5.91;84.17;98303.43;1786266;79;21020;-54
2021/11/28 11:50:25;;;;;;;19.87;15.60;;;;;;;5.93;84.26;98304.69;1768786;79;21161;-54
2021/11/28 11:52:51;;;;;;;19.50;15.53;;;;;;;5.95;84.21;98303.67;1767613;80;20997;-54
2021/11/28 11:55:26;;;;;;;22.07;14.53;;;;;;;5.95;84.24;98308.16;1764545;79;21540;-53